createdAt,value
2022-11-27T00:01:19.642Z,4.63
2022-11-27T00:03:46.510Z,5.55
2022-11-27T00:06:15.743Z,4.57
2022-11-27T00:08:43.436Z,4.85
2022-11-27T00:11:13.428Z,5.18
2022-11-27T00:13:40.302Z,4.70
2022-11-27T00:16:08.332Z,6.72
2022-11-27T00:18:35.239Z,6.82
2022-11-27T00:21:07.325Z,5.30
2022-11-27T00:23:34.939Z,4.97
2022-11-27T00:26:02.188Z,6.47
2022-11-27T00:28:28.915Z,6.07
2022-11-27T00:31:04.837Z,5.00
2022-11-27T00:33:31.981Z,5.63
2022-11-27T00:36:05.224Z,7.95
2022-11-27T00:38:35.924Z,5.28
2022-11-27T00:41:09.778Z,3.78
2022-11-27T00:43:44.037Z,5.45
2022-11-27T00:46:20.070Z,4.95
2022-11-27T00:48:48.166Z,4.50
2022-11-27T00:51:18.082Z,3.92
2022-11-27T00:53:44.881Z,4.35
2022-11-27T00:56:17.055Z,4.80
2022-11-27T00:58:43.780Z,5.85
2022-11-27T01:01:16.748Z,5.03
2022-11-27T01:03:43.232Z,3.75
2022-11-27T01:06:10.013Z,3.97
2022-11-27T01:08:39.874Z,4.70
2022-11-27T01:11:06.593Z,4.32
2022-11-27T01:13:35.535Z,4.63
2022-11-27T01:16:17.763Z,4.20
2022-11-27T01:18:46.735Z,4.00
2022-11-27T01:21:15.482Z,4.95
2022-11-27T01:23:41.977Z,4.85
2022-11-27T01:26:10.636Z,4.47
2022-11-27T01:28:39.601Z,4.22
2022-11-27T01:31:08.329Z,4.03
2022-11-27T01:33:37.358Z,4.22
2022-11-27T01:36:06.232Z,4.60
2022-11-27T01:38:35.957Z,3.22
2022-11-27T01:41:08.887Z,4.50
2022-11-27T01:43:38.865Z,3.53
2022-11-27T01:46:12.480Z,4.38
2022-11-27T01:48:39.039Z,4.45
2022-11-27T01:51:06.353Z,4.38
2022-11-27T01:53:38.182Z,3.97
2022-11-27T01:56:05.500Z,3.75
2022-11-27T01:58:33.354Z,3.67
2022-11-27T02:01:00.359Z,3.72
2022-11-27T02:03:27.707Z,4.25
2022-11-27T02:05:54.203Z,4.10
2022-11-27T02:08:20.683Z,3.65
2022-11-27T02:11:15.420Z,3.53
2022-11-27T02:13:49.571Z,3.72
2022-11-27T02:16:24.857Z,5.05
2022-11-27T02:19:07.276Z,4.32
2022-11-27T02:24:21.865Z,4.07
2022-11-27T02:27:06.974Z,3.42
2022-11-27T02:29:35.233Z,3.38
2022-11-27T02:32:19.615Z,4.10
2022-11-27T02:34:48.965Z,3.70
2022-11-27T02:37:33.000Z,4.57
2022-11-27T02:40:21.262Z,3.53
2022-11-27T02:42:53.564Z,3.42
2022-11-27T02:45:25.758Z,4.30
2022-11-27T02:47:52.551Z,3.45
2022-11-27T02:50:25.662Z,3.17
2022-11-27T02:52:55.752Z,4.05
2022-11-27T02:55:30.552Z,5.15
2022-11-27T02:57:59.676Z,4.22
2022-11-27T03:00:28.487Z,3.50
2022-11-27T03:03:03.155Z,4.03
2022-11-27T03:05:34.915Z,4.05
2022-11-27T03:08:10.113Z,4.35
2022-11-27T03:10:52.467Z,4.13
2022-11-27T03:15:59.105Z,4.15
2022-11-27T03:18:39.632Z,4.45
2022-11-27T03:21:22.514Z,4.43
2022-11-27T03:23:49.135Z,4.60
2022-11-27T03:26:15.578Z,4.20
2022-11-27T03:28:46.120Z,4.18
2022-11-27T03:31:13.256Z,4.63
2022-11-27T03:33:40.037Z,5.22
2022-11-27T03:36:18.652Z,4.10
2022-11-27T03:38:46.955Z,4.15
2022-11-27T03:41:38.235Z,3.75
2022-11-27T03:44:43.083Z,4.68
2022-11-27T03:47:30.154Z,4.20
2022-11-27T03:50:20.367Z,3.50
2022-11-27T03:53:13.111Z,4.70
2022-11-27T03:55:42.601Z,4.85
2022-11-27T03:58:20.154Z,4.22
2022-11-27T04:00:50.430Z,4.28
2022-11-27T04:03:27.816Z,4.50
2022-11-27T04:05:54.609Z,5.45
2022-11-27T04:08:21.362Z,4.55
2022-11-27T04:10:47.877Z,4.88
2022-11-27T04:13:14.899Z,4.82
2022-11-27T04:15:41.591Z,3.90
2022-11-27T04:18:08.197Z,5.22
2022-11-27T04:20:34.810Z,5.15
2022-11-27T04:23:01.239Z,6.63
2022-11-27T04:25:27.648Z,5.00
2022-11-27T04:27:54.060Z,4.13
2022-11-27T04:30:20.895Z,5.10
2022-11-27T04:32:47.270Z,5.00
2022-11-27T04:35:13.713Z,5.82
2022-11-27T04:37:40.155Z,4.78
2022-11-27T04:40:07.239Z,6.10
2022-11-27T04:42:33.656Z,4.43
2022-11-27T04:45:00.042Z,5.07
2022-11-27T04:47:26.386Z,5.43
2022-11-27T04:49:55.766Z,4.57
2022-11-27T04:52:24.619Z,5.95
2022-11-27T04:54:55.366Z,5.55
2022-11-27T04:57:27.605Z,5.82
2022-11-27T05:00:02.206Z,7.03
2022-11-27T05:02:29.031Z,5.95
2022-11-27T05:04:55.508Z,6.68
2022-11-27T05:07:22.261Z,5.10
2022-11-27T05:09:48.668Z,4.45
2022-11-27T05:12:15.005Z,5.07
2022-11-27T05:14:41.718Z,4.97
2022-11-27T05:17:09.870Z,4.97
2022-11-27T05:19:36.375Z,5.22
2022-11-27T05:22:02.823Z,5.50
2022-11-27T05:24:29.329Z,5.55
2022-11-27T05:26:56.715Z,5.28
2022-11-27T05:29:23.991Z,6.10
2022-11-27T05:31:50.813Z,5.35
2022-11-27T05:34:17.449Z,4.82
2022-11-27T05:36:44.337Z,4.07
2022-11-27T05:39:11.266Z,4.82
2022-11-27T05:41:39.342Z,4.65
2022-11-27T05:44:06.151Z,3.83
2022-11-27T05:46:34.396Z,4.57
2022-11-27T05:49:00.821Z,4.60
2022-11-27T05:51:27.188Z,5.28
2022-11-27T05:53:53.632Z,4.55
2022-11-27T05:56:20.067Z,4.88
2022-11-27T05:58:47.983Z,3.95
2022-11-27T06:01:16.341Z,4.55
2022-11-27T06:03:42.816Z,4.07
2022-11-27T06:06:12.254Z,5.43
2022-11-27T06:08:39.394Z,4.07
2022-11-27T06:11:07.827Z,4.15
2022-11-27T06:13:35.223Z,5.97
2022-11-27T06:16:10.852Z,4.10
2022-11-27T06:18:37.676Z,4.28
2022-11-27T06:21:15.035Z,4.53
2022-11-27T06:23:42.795Z,3.47
2022-11-27T06:26:21.179Z,4.38
2022-11-27T06:28:48.949Z,4.22
2022-11-27T06:31:23.424Z,3.80
2022-11-27T06:33:53.418Z,4.90
2022-11-27T06:36:21.480Z,5.28
2022-11-27T06:38:47.985Z,4.85
2022-11-27T06:41:26.655Z,5.78
2022-11-27T06:43:53.686Z,3.85
2022-11-27T06:46:22.307Z,4.18
2022-11-27T06:48:50.294Z,4.32
2022-11-27T06:51:22.166Z,3.95
2022-11-27T06:53:48.704Z,5.15
2022-11-27T06:56:20.270Z,4.75
2022-11-27T06:58:46.816Z,4.40
2022-11-27T07:01:15.398Z,4.35
2022-11-27T07:03:42.417Z,4.88
2022-11-27T07:06:12.010Z,3.90
2022-11-27T07:08:40.054Z,4.53
2022-11-27T07:11:09.380Z,4.10
2022-11-27T07:13:35.785Z,4.25
2022-11-27T07:16:04.991Z,4.85
2022-11-27T07:18:37.863Z,5.32
2022-11-27T07:21:04.510Z,4.30
2022-11-27T07:23:31.228Z,3.72
2022-11-27T07:25:58.504Z,4.85
2022-11-27T07:28:25.434Z,4.63
2022-11-27T07:30:56.584Z,4.35
2022-11-27T07:33:24.030Z,4.07
2022-11-27T07:35:57.123Z,4.43
2022-11-27T07:38:23.541Z,4.65
2022-11-27T07:40:53.759Z,4.00
2022-11-27T07:43:20.900Z,4.75
2022-11-27T07:45:47.382Z,4.35
2022-11-27T07:48:13.837Z,4.85
2022-11-27T07:50:43.271Z,4.65
2022-11-27T07:53:09.792Z,5.35
2022-11-27T07:55:39.788Z,5.28
2022-11-27T07:58:07.352Z,4.20
2022-11-27T08:00:35.094Z,4.00
2022-11-27T08:03:02.261Z,4.88
2022-11-27T08:05:28.851Z,5.05
2022-11-27T08:07:55.655Z,5.00
2022-11-27T08:10:25.085Z,4.22
2022-11-27T08:12:51.515Z,3.45
2022-11-27T08:15:17.927Z,5.55
2022-11-27T08:17:44.287Z,5.43
2022-11-27T08:20:11.018Z,4.82
2022-11-27T08:22:37.419Z,4.72
2022-11-27T08:25:03.995Z,4.60
2022-11-27T08:27:32.651Z,4.40
2022-11-27T08:29:59.901Z,4.18
2022-11-27T08:32:26.341Z,4.18
2022-11-27T08:34:55.658Z,4.63
2022-11-27T08:37:22.184Z,4.15
2022-11-27T08:39:48.698Z,6.20
2022-11-27T08:42:15.201Z,5.43
2022-11-27T08:44:42.104Z,3.88
2022-11-27T08:47:09.017Z,3.25
2022-11-27T08:49:37.279Z,4.80
2022-11-27T08:52:05.454Z,5.28
2022-11-27T08:54:31.809Z,4.97
2022-11-27T08:56:58.232Z,3.80
2022-11-27T08:59:27.092Z,4.85
2022-11-27T09:01:53.621Z,5.18
2022-11-27T09:04:20.146Z,3.85
2022-11-27T09:06:48.624Z,5.13
2022-11-27T09:09:15.923Z,3.92
2022-11-27T09:11:42.320Z,4.65
2022-11-27T09:14:08.910Z,4.78
2022-11-27T09:16:36.092Z,5.50
2022-11-27T09:19:02.737Z,4.65
2022-11-27T09:21:30.613Z,4.60
2022-11-27T09:23:59.165Z,4.35
2022-11-27T09:26:26.818Z,4.70
2022-11-27T09:28:54.841Z,5.65
2022-11-27T09:31:22.784Z,4.95
2022-11-27T09:33:49.872Z,5.18
2022-11-27T09:36:19.402Z,4.70
2022-11-27T09:38:45.969Z,5.15
2022-11-27T09:41:39.211Z,4.85
2022-11-27T09:44:17.993Z,4.47
2022-11-27T09:46:45.208Z,5.00
2022-11-27T09:49:21.335Z,4.97
2022-11-27T09:52:03.052Z,4.78
2022-11-27T09:54:52.620Z,4.45
2022-11-27T09:57:29.160Z,5.72
2022-11-27T09:59:59.943Z,5.68
2022-11-27T10:02:32.755Z,4.90
2022-11-27T10:05:17.855Z,4.50
2022-11-27T10:08:04.760Z,5.05
2022-11-27T10:11:05.106Z,3.90
2022-11-27T10:14:04.522Z,4.00
2022-11-27T10:16:50.746Z,5.32
2022-11-27T10:19:35.840Z,4.85
2022-11-27T10:22:33.507Z,5.18
2022-11-27T10:25:03.455Z,4.35
2022-11-27T10:27:40.536Z,4.82
2022-11-27T10:30:18.988Z,5.18
2022-11-27T10:32:56.526Z,7.40
2022-11-27T10:35:26.372Z,5.20
2022-11-27T10:38:01.021Z,5.28
2022-11-27T10:40:43.707Z,4.50
2022-11-27T10:43:18.740Z,5.25
2022-11-27T10:45:45.337Z,5.30
2022-11-27T10:48:13.046Z,6.32
2022-11-27T10:50:39.812Z,6.10
2022-11-27T10:53:13.030Z,5.07
2022-11-27T10:56:07.263Z,5.53
2022-11-27T10:58:42.435Z,5.20
2022-11-27T11:01:14.685Z,4.97
2022-11-27T11:03:41.260Z,5.07
2022-11-27T11:06:21.336Z,5.88
2022-11-27T11:08:49.568Z,6.63
2022-11-27T11:11:25.729Z,5.40
2022-11-27T11:13:52.437Z,4.43
2022-11-27T11:16:25.000Z,5.38
2022-11-27T11:18:54.636Z,4.35
2022-11-27T11:21:30.055Z,4.90
2022-11-27T11:23:58.651Z,4.20
2022-11-27T11:26:31.897Z,4.07
2022-11-27T11:29:02.337Z,5.32
2022-11-27T11:31:47.171Z,6.10
2022-11-27T11:34:23.275Z,4.78
2022-11-27T11:37:06.576Z,5.03
2022-11-27T11:40:00.724Z,5.03
2022-11-27T11:42:30.221Z,5.15
2022-11-27T11:45:07.215Z,4.10
2022-11-27T11:47:33.619Z,5.05
2022-11-27T11:50:01.119Z,4.55
2022-11-27T11:52:30.194Z,5.60
2022-11-27T11:55:05.644Z,4.65
2022-11-27T11:57:48.778Z,4.35
2022-11-27T12:00:17.477Z,5.03
2022-11-27T12:03:08.459Z,4.68
2022-11-27T12:05:51.287Z,4.45
2022-11-27T12:09:22.692Z,5.15
2022-11-27T12:12:13.800Z,5.05
2022-11-27T12:14:45.003Z,6.97
2022-11-27T12:17:32.690Z,6.10
2022-11-27T12:20:33.627Z,5.57
2022-11-27T12:23:22.064Z,6.35
2022-11-27T12:26:10.745Z,6.53
2022-11-27T12:29:14.413Z,6.50
2022-11-27T12:32:01.164Z,5.43
2022-11-27T12:34:54.802Z,7.05
2022-11-27T12:38:06.825Z,5.60
2022-11-27T12:41:01.256Z,5.90
2022-11-27T12:43:33.166Z,6.97
2022-11-27T12:46:11.351Z,6.40
2022-11-27T12:49:19.014Z,6.43
2022-11-27T12:51:54.653Z,6.90
2022-11-27T12:54:30.631Z,5.80
2022-11-27T12:57:02.136Z,6.22
2022-11-27T13:00:11.120Z,6.97
2022-11-27T13:03:01.015Z,7.22
2022-11-27T13:05:50.360Z,5.65
2022-11-27T13:08:49.620Z,7.45
2022-11-27T13:11:23.919Z,6.97
2022-11-27T13:14:04.515Z,5.22
2022-11-27T13:16:41.220Z,5.10
2022-11-27T13:19:14.634Z,6.30
2022-11-27T13:21:43.021Z,5.68
2022-11-27T13:24:13.234Z,7.40
2022-11-27T13:27:23.701Z,6.43
2022-11-27T13:29:54.886Z,6.35
2022-11-27T13:32:29.225Z,6.20
2022-11-27T13:34:59.013Z,6.00
2022-11-27T13:37:38.170Z,5.50
2022-11-27T13:40:21.590Z,12.65
2022-11-27T13:42:55.399Z,7.30
2022-11-27T13:45:31.399Z,7.95
2022-11-27T13:48:01.992Z,7.22
2022-11-27T13:50:31.622Z,7.53
2022-11-27T13:53:04.886Z,7.57
2022-11-27T13:55:40.044Z,6.45
2022-11-27T13:58:10.475Z,6.35
2022-11-27T14:00:41.752Z,6.47
2022-11-27T14:03:27.916Z,6.20
2022-11-27T14:05:55.170Z,5.18
2022-11-27T14:08:27.900Z,7.22
2022-11-27T14:10:58.916Z,5.95
2022-11-27T14:13:49.156Z,5.25
2022-11-27T14:16:21.505Z,5.75
2022-11-27T14:19:00.946Z,5.72
2022-11-27T14:21:40.821Z,5.00
2022-11-27T14:24:26.203Z,6.07
2022-11-27T14:26:54.319Z,4.97
2022-11-27T14:29:21.952Z,5.75
2022-11-27T14:32:00.356Z,5.22
2022-11-27T14:34:27.800Z,6.20
2022-11-27T14:36:54.731Z,6.35
2022-11-27T14:39:28.930Z,6.72
2022-11-27T14:42:06.566Z,6.45
2022-11-27T14:44:33.072Z,6.07
2022-11-27T14:47:03.330Z,5.88
2022-11-27T14:49:31.498Z,6.80
2022-11-27T14:52:05.647Z,5.80
2022-11-27T14:54:37.099Z,6.47
2022-11-27T14:57:06.502Z,7.07
2022-11-27T14:59:33.066Z,6.90
2022-11-27T15:02:11.525Z,6.82
2022-11-27T15:04:43.480Z,6.35
2022-11-27T15:07:27.149Z,6.05
2022-11-27T15:09:57.180Z,5.93
2022-11-27T15:12:34.887Z,7.40
2022-11-27T15:15:06.482Z,6.30
2022-11-27T15:17:36.106Z,6.50
2022-11-27T15:20:11.784Z,6.05
2022-11-27T15:22:38.426Z,6.63
2022-11-27T15:25:07.236Z,8.00
2022-11-27T15:27:45.845Z,6.47
2022-11-27T15:30:17.308Z,7.93
2022-11-27T15:32:51.993Z,8.07
2022-11-27T15:35:26.363Z,6.18
2022-11-27T15:37:55.906Z,6.72
2022-11-27T15:40:24.601Z,6.00
2022-11-27T15:42:50.969Z,8.77
2022-11-27T15:45:17.430Z,7.28
2022-11-27T15:47:44.390Z,7.05
2022-11-27T15:50:17.216Z,6.53
2022-11-27T15:52:43.810Z,8.68
2022-11-27T15:55:17.167Z,8.40
2022-11-27T15:57:46.547Z,7.95
2022-11-27T16:00:13.515Z,7.35
2022-11-27T16:02:42.691Z,8.93
2022-11-27T16:05:12.269Z,8.20
2022-11-27T16:07:38.738Z,7.72
2022-11-27T16:10:06.622Z,7.90
2022-11-27T16:12:33.516Z,7.57
2022-11-27T16:15:00.157Z,7.85
2022-11-27T16:17:29.685Z,7.47
2022-11-27T16:19:56.167Z,8.27
2022-11-27T16:22:23.736Z,8.10
2022-11-27T16:24:56.184Z,6.80
2022-11-27T16:27:22.602Z,7.35
2022-11-27T16:29:48.937Z,7.93
2022-11-27T16:32:15.318Z,7.15
2022-11-27T16:34:42.090Z,7.13
2022-11-27T16:37:08.642Z,7.45
2022-11-27T16:39:35.052Z,8.90
2022-11-27T16:42:01.633Z,8.13
2022-11-27T16:44:28.188Z,7.30
2022-11-27T16:46:54.577Z,7.93
2022-11-27T16:49:21.876Z,8.45
2022-11-27T16:51:48.211Z,7.93
2022-11-27T16:54:14.807Z,7.80
2022-11-27T16:56:41.184Z,6.78
2022-11-27T16:59:09.688Z,7.80
2022-11-27T17:01:37.629Z,6.97
2022-11-27T17:04:07.275Z,8.02
2022-11-27T17:06:33.796Z,8.55
2022-11-27T17:09:02.387Z,10.40
2022-11-27T17:11:33.672Z,9.30
2022-11-27T17:14:02.420Z,8.63
2022-11-27T17:16:28.922Z,7.90
2022-11-27T17:18:55.379Z,7.63
2022-11-27T17:21:31.612Z,10.13
2022-11-27T17:24:00.529Z,7.78
2022-11-27T17:26:29.706Z,8.60
2022-11-27T17:28:57.202Z,8.23
2022-11-27T17:31:26.569Z,9.73
2022-11-27T17:33:59.436Z,7.53
2022-11-27T17:36:26.990Z,11.63
2022-11-27T17:38:53.908Z,9.27
2022-11-27T17:41:21.224Z,8.75
2022-11-27T17:43:49.967Z,8.85
2022-11-27T17:46:24.364Z,8.82
2022-11-27T17:48:51.683Z,7.78
2022-11-27T17:51:19.003Z,7.65
2022-11-27T17:53:45.435Z,9.00
2022-11-27T17:56:14.588Z,7.25
2022-11-27T17:58:41.921Z,7.90
2022-11-27T18:01:16.142Z,7.53
2022-11-27T18:03:42.675Z,8.40
2022-11-27T18:06:09.412Z,8.02
2022-11-27T18:08:35.895Z,8.57
2022-11-27T18:11:11.935Z,8.82
2022-11-27T18:13:38.466Z,6.97
2022-11-27T18:16:16.422Z,7.75
2022-11-27T18:18:49.680Z,7.22
2022-11-27T18:21:21.864Z,8.48
2022-11-27T18:27:07.316Z,7.00
2022-11-27T18:29:25.675Z,8.75
2022-11-27T18:31:53.406Z,9.27
2022-11-27T18:34:20.000Z,8.45
2022-11-27T18:36:46.386Z,8.63
2022-11-27T18:39:13.261Z,7.50
2022-11-27T18:41:40.731Z,8.07
2022-11-27T18:44:07.399Z,6.80
2022-11-27T18:46:33.979Z,8.25
2022-11-27T18:49:00.535Z,8.20
2022-11-27T18:51:27.359Z,7.68
2022-11-27T18:53:54.573Z,8.25
2022-11-27T18:56:27.810Z,8.35
2022-11-27T18:59:00.811Z,8.55
2022-11-27T19:01:29.607Z,8.98
2022-11-27T19:03:56.670Z,8.52
2022-11-27T19:06:24.696Z,8.15
2022-11-27T19:08:51.694Z,8.15
2022-11-27T19:11:23.541Z,9.60
2022-11-27T19:13:51.383Z,10.52
2022-11-27T19:16:25.276Z,10.15
2022-11-27T19:18:51.975Z,9.23
2022-11-27T19:21:26.348Z,8.82
2022-11-27T19:23:53.671Z,7.60
2022-11-27T19:26:22.548Z,10.13
2022-11-27T19:28:50.714Z,7.88
2022-11-27T19:31:20.254Z,8.27
2022-11-27T19:34:00.940Z,8.63
2022-11-27T19:36:29.501Z,9.77
2022-11-27T19:38:58.076Z,7.60
2022-11-27T19:41:25.127Z,8.15
2022-11-27T19:44:00.482Z,8.55
2022-11-27T19:46:30.543Z,7.80
2022-11-27T19:48:58.788Z,7.00
2022-11-27T19:51:31.373Z,7.85
2022-11-27T19:54:08.404Z,9.15
2022-11-27T19:56:38.629Z,8.10
2022-11-27T19:59:08.920Z,8.60
2022-11-27T20:01:37.462Z,8.88
2022-11-27T20:04:04.144Z,7.82
2022-11-27T20:06:31.043Z,9.25
2022-11-27T20:09:00.794Z,9.23
2022-11-27T20:11:34.232Z,9.23
2022-11-27T20:14:01.559Z,9.10
2022-11-27T20:16:28.240Z,8.52
2022-11-27T20:18:55.482Z,8.48
2022-11-27T20:21:24.490Z,8.38
2022-11-27T20:23:52.032Z,8.02
2022-11-27T20:26:21.875Z,8.98
2022-11-27T20:28:49.721Z,8.65
2022-11-27T20:31:25.081Z,7.55
2022-11-27T20:33:53.484Z,8.85
2022-11-27T20:36:28.919Z,7.50
2022-11-27T20:38:57.890Z,7.72
2022-11-27T20:41:26.426Z,9.05
2022-11-27T20:44:00.422Z,8.20
2022-11-27T20:46:30.357Z,9.75
2022-11-27T20:48:57.226Z,6.60
2022-11-27T20:51:28.608Z,8.48
2022-11-27T20:53:59.131Z,8.10
2022-11-27T20:56:25.822Z,7.10
2022-11-27T20:58:52.492Z,7.35
2022-11-27T21:01:20.280Z,8.60
2022-11-27T21:03:48.713Z,8.20
2022-11-27T21:06:18.217Z,8.15
2022-11-27T21:08:44.890Z,9.07
2022-11-27T21:11:21.033Z,6.40
2022-11-27T21:13:47.543Z,8.15
2022-11-27T21:16:14.676Z,5.57
2022-11-27T21:18:41.126Z,6.75
2022-11-27T21:21:12.776Z,6.90
2022-11-27T21:23:40.176Z,7.57
2022-11-27T21:26:07.692Z,6.55
2022-11-27T21:28:36.872Z,7.95
2022-11-27T21:31:19.643Z,6.07
2022-11-27T21:33:48.262Z,7.38
2022-11-27T21:36:14.926Z,6.80
2022-11-27T21:38:41.390Z,8.05
2022-11-27T21:41:08.684Z,6.97
2022-11-27T21:43:35.084Z,7.07
2022-11-27T21:46:14.306Z,7.80
2022-11-27T21:48:40.920Z,7.28
2022-11-27T21:51:12.619Z,8.07
2022-11-27T21:53:40.353Z,8.55
2022-11-27T21:56:08.343Z,7.65
2022-11-27T21:58:35.157Z,7.13
2022-11-27T22:01:02.901Z,7.53
2022-11-27T22:03:29.315Z,6.80
2022-11-27T22:06:09.806Z,8.10
2022-11-27T22:08:37.358Z,7.15
2022-11-27T22:11:10.910Z,7.70
2022-11-27T22:13:38.361Z,7.18
2022-11-27T22:16:22.487Z,7.57
2022-11-27T22:18:49.268Z,6.82
2022-11-27T22:21:16.572Z,7.18
2022-11-27T22:23:43.592Z,7.65
2022-11-27T22:26:20.787Z,7.60
2022-11-27T22:28:47.965Z,8.18
2022-11-27T22:31:20.954Z,7.25
2022-11-27T22:33:47.694Z,8.40
2022-11-27T22:36:25.386Z,9.35
2022-11-27T22:38:54.586Z,7.68
2022-11-27T22:41:25.935Z,7.47
2022-11-27T22:43:52.738Z,7.40
2022-11-27T22:46:25.994Z,8.50
2022-11-27T22:48:54.769Z,6.68
2022-11-27T22:51:22.304Z,8.50
2022-11-27T22:53:48.672Z,6.25
2022-11-27T22:56:15.389Z,8.63
2022-11-27T22:58:42.599Z,7.75
2022-11-27T23:01:14.017Z,8.32
2022-11-27T23:03:42.874Z,9.00
2022-11-27T23:06:12.153Z,6.88
2022-11-27T23:08:46.612Z,9.02
2022-11-27T23:11:20.384Z,7.20
2022-11-27T23:13:49.835Z,7.97
2022-11-27T23:16:17.201Z,8.70
2022-11-27T23:18:43.664Z,7.75
2022-11-27T23:21:13.200Z,9.10
2022-11-27T23:23:43.465Z,7.38
2022-11-27T23:26:17.723Z,6.93
2022-11-27T23:28:45.657Z,8.13
2022-11-27T23:31:36.180Z,7.55
2022-11-27T23:34:07.330Z,7.18
2022-11-27T23:36:34.670Z,6.47
2022-11-27T23:39:02.982Z,7.22
2022-11-27T23:41:31.120Z,7.40
2022-11-27T23:43:59.868Z,7.63
2022-11-27T23:46:28.336Z,6.72
2022-11-27T23:48:56.213Z,7.72
2022-11-27T23:51:28.818Z,6.35
2022-11-27T23:53:55.177Z,8.05
2022-11-27T23:56:24.511Z,7.18
2022-11-27T23:58:52.093Z,7.38
